Time;durP1;ratioP1;P1;durP2;ratioP2;P2;SDS_P1;SDS_P2;PMS_P1;PMS_P2;Temp;Humidity;BMP_temperature;BMP_pressure;BME280_temperature;BME280_humidity;BME280_pressure;Samples;Min_cycle;Max_cycle;Signal;HPM_P1;HPM_P2
2021/08/11 00:01:14;;;;;;;6.78;4.55;;;;;;;;;;5092533;28;20918;-46
2021/08/11 00:03:40;;;;;;;8.20;5.85;;;;;;;;;;5092731;28;20032;-46
2021/08/11 00:06:07;;;;;;;7.97;5.93;;;;;;;;;;5092305;28;20709;-46
2021/08/11 00:08:33;;;;;;;6.97;5.78;;;;;;;;;;5091541;28;20526;-46
2021/08/11 00:10:59;;;;;;;6.10;5.15;;;;;;;;;;5092173;28;20116;-45
2021/08/11 00:13:25;;;;;;;5.82;5.30;;;;;;;;;;5092050;28;20270;-45
2021/08/11 00:15:51;;;;;;;5.25;4.72;;;;;;;;;;5091961;28;20063;-48
2021/08/11 00:18:17;;;;;;;5.65;5.15;;;;;;;;;;5091881;28;20080;-45
2021/08/11 00:20:43;;;;;;;7.90;5.50;;;;;;;;;;5091986;28;20024;-46
2021/08/11 00:23:09;;;;;;;7.40;5.10;;;;;;;;;;5091828;28;20020;-45
2021/08/11 00:25:35;;;;;;;8.35;5.53;;;;;;;;;;5091877;28;20020;-46
2021/08/11 00:28:01;;;;;;;6.47;5.60;;;;;;;;;;5091971;28;20375;-47
2021/08/11 00:30:27;;;;;;;7.80;5.40;;;;;;;;;;5091860;28;20031;-46
2021/08/11 00:32:53;;;;;;;5.93;5.30;;;;;;;;;;5091924;28;20023;-46
2021/08/11 00:35:19;;;;;;;5.32;4.63;;;;;;;;;;5091858;28;20024;-48
2021/08/11 00:37:45;;;;;;;5.85;5.28;;;;;;;;;;5091753;28;20035;-46
2021/08/11 00:40:14;;;;;;;7.18;5.47;;;;;;;;;;5091945;28;20059;-49
2021/08/11 00:42:40;;;;;;;6.47;5.40;;;;;;;;;;5091937;28;20024;-46
2021/08/11 00:45:06;;;;;;;5.47;4.97;;;;;;;;;;5073483;28;20364;-45
2021/08/11 00:47:35;;;;;;;6.75;5.43;;;;;;;;;;5091662;28;20387;-45
2021/08/11 00:50:01;;;;;;;5.93;5.32;;;;;;;;;;5091740;28;20024;-46
2021/08/11 00:52:27;;;;;;;5.88;5.20;;;;;;;;;;5091673;28;20027;-45
2021/08/11 00:54:54;;;;;;;6.03;5.43;;;;;;;;;;5091669;28;20035;-50
2021/08/11 00:57:20;;;;;;;6.32;5.43;;;;;;;;;;5091601;28;20077;-48
2021/08/11 00:59:48;;;;;;;5.95;5.03;;;;;;;;;;5091582;28;20107;-46
2021/08/11 01:02:16;;;;;;;10.82;5.25;;;;;;;;;;5091625;28;20029;-48
2021/08/11 01:04:42;;;;;;;5.80;5.30;;;;;;;;;;5091499;28;20027;-47
2021/08/11 01:07:08;;;;;;;5.88;5.38;;;;;;;;;;5091562;28;20028;-49
2021/08/11 01:09:35;;;;;;;7.15;5.75;;;;;;;;;;5091499;28;20077;-47
2021/08/11 01:12:01;;;;;;;8.38;5.15;;;;;;;;;;5091415;28;20051;-49
2021/08/11 01:14:29;;;;;;;5.40;4.90;;;;;;;;;;5091477;28;20020;-46
2021/08/11 01:16:55;;;;;;;6.00;5.40;;;;;;;;;;5091263;28;20401;-45
2021/08/11 01:19:21;;;;;;;8.13;5.95;;;;;;;;;;5093216;28;20107;-46
2021/08/11 01:21:53;;;;;;;6.43;5.55;;;;;;;;;;5095457;28;20532;-47
2021/08/11 01:24:29;;;;;;;7.07;5.50;;;;;;;;;;5095199;28;20024;-46
2021/08/11 01:27:07;;;;;;;6.75;5.70;;;;;;;;;;5095474;28;20485;-46
2021/08/11 01:29:52;;;;;;;6.65;5.75;;;;;;;;;;5095341;28;20031;-45
2021/08/11 01:32:36;;;;;;;6.28;5.65;;;;;;;;;;5095213;28;20016;-46
2021/08/11 01:35:02;;;;;;;;;;;;;;;;;;5095845;28;20106;-46
2021/08/11 01:37:29;;;;;;;6.68;6.05;;;;;;;;;;5095350;28;20005;-48
2021/08/11 01:39:59;;;;;;;7.45;6.45;;;;;;;;;;5095285;28;20032;-48
2021/08/11 01:42:29;;;;;;;6.53;5.93;;;;;;;;;;5095075;28;20505;-46
2021/08/11 01:45:02;;;;;;;6.18;5.57;;;;;;;;;;5095045;28;20031;-48
2021/08/11 01:47:30;;;;;;;6.80;6.20;;;;;;;;;;5094891;28;20021;-47
2021/08/11 01:49:56;;;;;;;8.23;6.53;;;;;;;;;;5076716;28;20395;-46
2021/08/11 01:52:22;;;;;;;6.22;5.68;;;;;;;;;;5094923;28;20054;-46
2021/08/11 01:54:49;;;;;;;6.30;5.70;;;;;;;;;;5094696;28;20486;-46
2021/08/11 01:57:15;;;;;;;8.38;6.07;;;;;;;;;;5094674;28;20073;-46
2021/08/11 01:59:42;;;;;;;6.15;5.55;;;;;;;;;;5094662;28;20043;-45
2021/08/11 02:02:11;;;;;;;7.15;5.95;;;;;;;;;;5094604;28;20030;-48
2021/08/11 02:04:37;;;;;;;5.82;5.28;;;;;;;;;;5094618;28;20051;-46
2021/08/11 02:07:04;;;;;;;9.48;6.20;;;;;;;;;;5094641;28;20020;-46
2021/08/11 02:09:30;;;;;;;6.32;5.50;;;;;;;;;;5094407;28;20047;-48
2021/08/11 02:11:57;;;;;;;6.05;5.43;;;;;;;;;;5094547;28;20016;-44
2021/08/11 02:14:23;;;;;;;9.00;6.03;;;;;;;;;;5094354;28;20386;-44
2021/08/11 02:16:49;;;;;;;6.85;5.97;;;;;;;;;;5093782;28;20048;-44
2021/08/11 02:19:15;;;;;;;6.88;5.25;;;;;;;;;;5094450;28;20040;-44
2021/08/11 02:21:41;;;;;;;6.30;5.63;;;;;;;;;;5094230;28;20031;-45
2021/08/11 02:24:08;;;;;;;7.57;6.40;;;;;;;;;;5094148;28;20415;-49
2021/08/11 02:26:39;;;;;;;9.07;6.40;;;;;;;;;;5093944;28;20057;-47
2021/08/11 02:29:22;;;;;;;6.22;5.65;;;;;;;;;;5094153;28;20043;-48
2021/08/11 02:31:52;;;;;;;6.88;5.72;;;;;;;;;;5093089;28;20482;-45
2021/08/11 02:34:32;;;;;;;7.05;6.15;;;;;;;;;;5093947;28;20490;-46
2021/08/11 02:37:00;;;;;;;7.05;6.32;;;;;;;;;;5094210;28;20039;-48
2021/08/11 02:39:30;;;;;;;6.53;5.82;;;;;;;;;;5094086;28;20548;-47
2021/08/11 02:42:01;;;;;;;7.20;5.68;;;;;;;;;;5093913;28;20043;-46
2021/08/11 02:44:29;;;;;;;7.25;6.30;;;;;;;;;;5093923;28;20024;-46
2021/08/11 02:46:57;;;;;;;6.78;6.10;;;;;;;;;;5093842;28;20032;-45
2021/08/11 02:49:27;;;;;;;7.13;6.43;;;;;;;;;;5093777;28;20069;-45
2021/08/11 02:51:55;;;;;;;7.55;6.10;;;;;;;;;;5093863;28;20031;-46
2021/08/11 02:54:22;;;;;;;7.05;6.15;;;;;;;;;;5093661;28;20085;-46
2021/08/11 02:56:48;;;;;;;6.80;6.15;;;;;;;;;;5093609;28;20351;-45
2021/08/11 02:59:15;;;;;;;6.40;5.80;;;;;;;;;;5075468;28;20033;-45
2021/08/11 03:01:42;;;;;;;6.40;5.80;;;;;;;;;;5093580;28;20062;-44
2021/08/11 03:04:08;;;;;;;6.32;5.60;;;;;;;;;;5092551;28;20099;-44
2021/08/11 03:06:35;;;;;;;6.07;5.47;;;;;;;;;;5093144;28;20081;-45
2021/08/11 03:09:01;;;;;;;6.90;6.07;;;;;;;;;;5075240;28;20490;-45
2021/08/11 03:11:28;;;;;;;6.57;5.97;;;;;;;;;;5093342;28;20044;-46
2021/08/11 03:13:55;;;;;;;7.43;6.15;;;;;;;;;;5093257;28;20348;-46
2021/08/11 03:16:21;;;;;;;7.43;6.63;;;;;;;;;;5093065;28;20467;-46
2021/08/11 03:18:49;;;;;;;5.78;5.28;;;;;;;;;;5093098;28;20035;-47
2021/08/11 03:21:15;;;;;;;9.43;6.18;;;;;;;;;;5093317;28;20024;-48
2021/08/11 03:23:41;;;;;;;6.93;6.20;;;;;;;;;;5092996;28;20059;-45
2021/08/11 03:26:07;;;;;;;8.07;6.25;;;;;;;;;;5092929;28;20059;-45
2021/08/11 03:28:33;;;;;;;6.63;5.95;;;;;;;;;;5093078;28;20023;-46
2021/08/11 03:30:59;;;;;;;6.90;6.20;;;;;;;;;;5093039;28;20023;-48
2021/08/11 03:33:25;;;;;;;6.68;5.53;;;;;;;;;;5092858;28;20030;-48
2021/08/11 03:35:51;;;;;;;8.10;6.65;;;;;;;;;;5092882;28;20035;-46
2021/08/11 03:38:17;;;;;;;6.32;5.80;;;;;;;;;;5092677;28;20020;-46
2021/08/11 03:40:43;;;;;;;7.15;6.45;;;;;;;;;;5092691;28;20020;-47
2021/08/11 03:43:10;;;;;;;6.05;5.13;;;;;;;;;;5092691;28;20028;-45
2021/08/11 03:45:36;;;;;;;6.50;6.00;;;;;;;;;;5092626;28;20510;-45
2021/08/11 03:48:02;;;;;;;6.30;5.78;;;;;;;;;;5074616;28;20020;-47
2021/08/11 03:50:28;;;;;;;6.45;5.82;;;;;;;;;;5092726;28;20031;-47
2021/08/11 03:52:54;;;;;;;8.55;6.35;;;;;;;;;;5092532;28;20028;-47
2021/08/11 03:55:20;;;;;;;6.97;6.38;;;;;;;;;;5092431;28;20024;-47
2021/08/11 03:57:46;;;;;;;6.85;5.97;;;;;;;;;;5074123;28;20073;-46
2021/08/11 04:00:13;;;;;;;7.50;6.65;;;;;;;;;;5092306;28;20493;-46
2021/08/11 04:02:39;;;;;;;6.63;6.03;;;;;;;;;;5090826;28;20038;-45
2021/08/11 04:05:06;;;;;;;7.55;6.28;;;;;;;;;;5092122;28;20024;-46
2021/08/11 04:07:32;;;;;;;6.82;6.05;;;;;;;;;;5092175;28;20484;-49
2021/08/11 04:09:58;;;;;;;6.82;6.20;;;;;;;;;;5092371;28;20020;-46
2021/08/11 04:12:24;;;;;;;6.85;6.15;;;;;;;;;;5092179;28;20100;-48
2021/08/11 04:14:50;;;;;;;6.60;6.00;;;;;;;;;;5092077;28;20028;-49
2021/08/11 04:17:16;;;;;;;7.10;6.50;;;;;;;;;;5091962;28;20071;-44
2021/08/11 04:19:42;;;;;;;7.97;6.47;;;;;;;;;;5092132;28;20024;-46
2021/08/11 04:22:08;;;;;;;7.82;6.30;;;;;;;;;;5092152;28;20429;-45
2021/08/11 04:24:34;;;;;;;9.80;6.07;;;;;;;;;;5091967;28;20020;-46
2021/08/11 04:27:00;;;;;;;7.00;6.32;;;;;;;;;;5091928;28;20024;-46
2021/08/11 04:29:26;;;;;;;7.00;6.00;;;;;;;;;;5091963;28;20020;-44
2021/08/11 04:31:52;;;;;;;7.03;6.32;;;;;;;;;;5091998;28;20020;-44
2021/08/11 04:34:18;;;;;;;7.32;5.97;;;;;;;;;;5091833;28;20020;-46
2021/08/11 04:36:44;;;;;;;7.05;6.35;;;;;;;;;;5091767;28;20520;-46
2021/08/11 04:39:10;;;;;;;6.90;6.20;;;;;;;;;;5091755;28;20020;-45
2021/08/11 04:41:36;;;;;;;6.80;6.15;;;;;;;;;;5091691;28;20025;-47
2021/08/11 04:44:03;;;;;;;7.53;6.82;;;;;;;;;;5091807;28;20023;-47
2021/08/11 04:46:29;;;;;;;9.15;6.47;;;;;;;;;;5091748;28;20474;-46
2021/08/11 04:48:55;;;;;;;6.82;6.22;;;;;;;;;;5091371;28;20138;-46
2021/08/11 04:51:21;;;;;;;7.22;6.50;;;;;;;;;;5091670;28;20035;-46
2021/08/11 04:53:47;;;;;;;9.90;6.70;;;;;;;;;;5092615;28;20444;-46
2021/08/11 04:56:13;;;;;;;6.80;5.90;;;;;;;;;;5095978;28;20024;-45
2021/08/11 04:58:39;;;;;;;7.57;6.63;;;;;;;;;;5095936;28;20134;-48
2021/08/11 05:01:05;;;;;;;6.60;5.88;;;;;;;;;;5096019;28;20110;-46
2021/08/11 05:03:37;;;;;;;8.40;6.43;;;;;;;;;;5094651;28;20021;-46
2021/08/11 05:06:09;;;;;;;6.88;6.15;;;;;;;;;;5095184;28;20482;-46
2021/08/11 05:08:36;;;;;;;11.98;6.72;;;;;;;;;;5095661;28;20027;-45
2021/08/11 05:11:04;;;;;;;6.20;5.50;;;;;;;;;;5077387;28;20775;-45
2021/08/11 05:13:31;;;;;;;7.43;6.00;;;;;;;;;;5095500;28;20422;-47
2021/08/11 05:15:57;;;;;;;7.28;6.55;;;;;;;;;;5095711;28;20477;-48
2021/08/11 05:18:23;;;;;;;7.72;6.93;;;;;;;;;;5077063;28;20196;-47
2021/08/11 05:20:49;;;;;;;7.60;6.80;;;;;;;;;;5095259;28;20107;-46
2021/08/11 05:23:15;;;;;;;8.57;6.47;;;;;;;;;;5094344;28;20050;-47
2021/08/11 05:25:41;;;;;;;9.48;6.80;;;;;;;;;;5087275;28;20550;-47
2021/08/11 05:28:08;;;;;;;6.45;5.85;;;;;;;;;;5092563;28;20107;-45
2021/08/11 05:30:34;;;;;;;8.25;6.40;;;;;;;;;;5095360;28;20881;-47
2021/08/11 05:33:00;;;;;;;7.03;6.40;;;;;;;;;;5095144;28;20024;-47
2021/08/11 05:35:26;;;;;;;6.63;5.95;;;;;;;;;;5095109;28;20078;-46
2021/08/11 05:37:52;;;;;;;8.75;6.45;;;;;;;;;;5094446;28;20024;-47
2021/08/11 05:40:18;;;;;;;8.63;6.35;;;;;;;;;;5095128;28;20031;-46
2021/08/11 05:42:46;;;;;;;6.13;5.32;;;;;;;;;;5092368;28;20038;-46
2021/08/11 05:45:12;;;;;;;7.22;6.63;;;;;;;;;;5091138;28;20070;-45
2021/08/11 05:47:38;;;;;;;8.10;6.88;;;;;;;;;;5073999;28;20416;-45
2021/08/11 05:50:05;;;;;;;7.30;6.70;;;;;;;;;;5094275;28;20403;-48
2021/08/11 05:52:31;;;;;;;7.22;6.53;;;;;;;;;;5076662;28;20016;-46
2021/08/11 05:54:57;;;;;;;6.90;6.20;;;;;;;;;;5093901;28;20440;-46
2021/08/11 05:57:23;;;;;;;7.20;6.10;;;;;;;;;;5092138;28;20437;-45
2021/08/11 05:59:50;;;;;;;7.13;6.53;;;;;;;;;;5093959;28;20031;-45
2021/08/11 06:02:16;;;;;;;7.15;6.45;;;;;;;;;;5094541;28;20104;-45
2021/08/11 06:04:42;;;;;;;7.93;7.13;;;;;;;;;;5092035;28;20028;-46
2021/08/11 06:07:08;;;;;;;11.50;6.90;;;;;;;;;;5093013;28;20081;-45
2021/08/11 06:09:34;;;;;;;8.55;6.30;;;;;;;;;;5094044;28;20032;-45
2021/08/11 06:12:00;;;;;;;9.93;7.05;;;;;;;;;;5091214;28;20020;-46
2021/08/11 06:14:27;;;;;;;9.35;7.47;;;;;;;;;;5074085;28;20088;-45
2021/08/11 06:16:53;;;;;;;13.10;7.00;;;;;;;;;;5074323;28;20083;-48
2021/08/11 06:19:19;;;;;;;11.85;7.13;;;;;;;;;;5093358;28;20043;-48
2021/08/11 06:21:45;;;;;;;8.30;7.20;;;;;;;;;;5094038;28;20024;-48
2021/08/11 06:24:11;;;;;;;8.98;6.97;;;;;;;;;;5081814;28;20024;-49
2021/08/11 06:26:37;;;;;;;7.38;6.55;;;;;;;;;;5092763;28;20047;-46
2021/08/11 06:29:03;;;;;;;9.75;7.95;;;;;;;;;;5090895;28;20020;-46
2021/08/11 06:31:29;;;;;;;8.65;7.55;;;;;;;;;;5091406;28;20364;-45
2021/08/11 06:33:56;;;;;;;10.98;7.43;;;;;;;;;;5094148;28;20032;-49
2021/08/11 06:36:22;;;;;;;8.25;7.45;;;;;;;;;;5094102;28;20386;-45
2021/08/11 06:38:49;;;;;;;9.43;7.60;;;;;;;;;;5093889;28;20036;-46
2021/08/11 06:41:18;;;;;;;11.35;7.43;;;;;;;;;;5093931;28;20048;-46
2021/08/11 06:43:45;;;;;;;8.95;8.05;;;;;;;;;;5094003;28;20031;-45
2021/08/11 06:46:11;;;;;;;7.93;7.22;;;;;;;;;;5074821;28;20062;-49
2021/08/11 06:48:37;;;;;;;8.73;7.30;;;;;;;;;;5093872;28;20086;-46
2021/08/11 06:51:05;;;;;;;8.82;7.93;;;;;;;;;;5091298;28;20027;-46
2021/08/11 06:53:31;;;;;;;7.90;7.07;;;;;;;;;;5089762;28;20089;-50
2021/08/11 06:55:57;;;;;;;6.80;6.07;;;;;;;;;;5092473;28;20099;-48
2021/08/11 06:58:23;;;;;;;6.97;6.30;;;;;;;;;;5093704;28;20387;-44
2021/08/11 07:00:50;;;;;;;8.32;6.97;;;;;;;;;;5093425;28;20032;-45
2021/08/11 07:03:18;;;;;;;7.38;6.72;;;;;;;;;;5092787;28;20042;-42
2021/08/11 07:05:45;;;;;;;9.77;7.43;;;;;;;;;;5076561;28;20024;-43
2021/08/11 07:08:11;;;;;;;7.93;7.13;;;;;;;;;;5092682;28;20021;-42
2021/08/11 07:10:37;;;;;;;8.65;6.43;;;;;;;;;;5093284;28;20032;-42
2021/08/11 07:13:03;;;;;;;9.25;6.13;;;;;;;;;;5092676;28;20022;-43
2021/08/11 07:15:29;;;;;;;9.18;7.03;;;;;;;;;;5075379;28;20052;-43
2021/08/11 07:17:56;;;;;;;7.93;6.55;;;;;;;;;;5072470;28;20151;-42
2021/08/11 07:20:22;;;;;;;7.00;6.32;;;;;;;;;;5072887;28;20016;-42
2021/08/11 07:22:49;;;;;;;10.50;6.90;;;;;;;;;;5054879;28;20020;-43
2021/08/11 07:25:15;;;;;;;9.45;5.88;;;;;;;;;;5072911;28;20032;-43
2021/08/11 07:27:41;;;;;;;7.10;6.32;;;;;;;;;;5072672;28;20033;-42
2021/08/11 07:30:07;;;;;;;7.15;6.47;;;;;;;;;;5072485;28;20020;-43
2021/08/11 07:32:33;;;;;;;7.18;6.43;;;;;;;;;;5072383;28;20031;-42
2021/08/11 07:34:59;;;;;;;7.60;6.63;;;;;;;;;;5072611;28;20399;-42
2021/08/11 07:37:25;;;;;;;10.15;6.22;;;;;;;;;;5072451;28;20043;-42
2021/08/11 07:39:54;;;;;;;9.10;6.80;;;;;;;;;;5072339;28;20460;-43
2021/08/11 07:42:20;;;;;;;7.30;6.38;;;;;;;;;;5075870;28;20024;-42
2021/08/11 07:44:46;;;;;;;8.32;6.43;;;;;;;;;;5092614;28;20364;-42
2021/08/11 07:47:12;;;;;;;7.55;6.75;;;;;;;;;;5092583;28;20467;-42
2021/08/11 07:49:38;;;;;;;7.50;6.75;;;;;;;;;;5084044;28;20486;-43
2021/08/11 07:52:04;;;;;;;7.20;6.47;;;;;;;;;;5082327;28;20096;-43
2021/08/11 07:54:31;;;;;;;8.25;7.43;;;;;;;;;;5092468;28;20471;-43
2021/08/11 07:56:57;;;;;;;9.20;7.40;;;;;;;;;;5092536;28;20035;-43
2021/08/11 07:59:23;;;;;;;7.90;7.07;;;;;;;;;;5092479;28;20070;-43
2021/08/11 08:01:49;;;;;;;9.18;7.35;;;;;;;;;;5074352;28;20032;-42
2021/08/11 08:04:15;;;;;;;7.72;6.95;;;;;;;;;;5092385;28;20024;-44
2021/08/11 08:06:41;;;;;;;11.23;7.40;;;;;;;;;;5074166;28;20126;-43
2021/08/11 08:09:07;;;;;;;7.95;6.88;;;;;;;;;;5092551;28;20047;-43
2021/08/11 08:11:33;;;;;;;10.07;7.75;;;;;;;;;;5092090;28;20081;-42
2021/08/11 08:13:59;;;;;;;9.68;7.72;;;;;;;;;;5084067;28;20039;-43
2021/08/11 08:16:25;;;;;;;10.45;7.65;;;;;;;;;;5080532;28;20530;-43
2021/08/11 08:18:51;;;;;;;8.20;7.38;;;;;;;;;;5079640;28;20028;-43
2021/08/11 08:21:18;;;;;;;10.40;8.65;;;;;;;;;;5064297;28;20383;-43
2021/08/11 08:23:44;;;;;;;8.20;6.60;;;;;;;;;;5081370;28;20032;-47
2021/08/11 08:26:10;;;;;;;11.73;7.32;;;;;;;;;;5079587;28;20070;-43
2021/08/11 08:28:36;;;;;;;8.63;7.03;;;;;;;;;;5090918;28;20047;-42
2021/08/11 08:31:02;;;;;;;9.25;7.13;;;;;;;;;;5091773;28;20432;-44
2021/08/11 08:33:28;;;;;;;8.77;7.10;;;;;;;;;;5091763;28;20020;-44
2021/08/11 08:35:54;;;;;;;44.00;20.85;;;;;;;;;;5091961;28;20073;-36
2021/08/11 08:38:20;;;;;;;14.73;10.80;;;;;;;;;;5091570;28;20337;-35
2021/08/11 08:40:47;;;;;;;21.30;9.85;;;;;;;;;;5091680;28;20081;-36
2021/08/11 08:43:13;;;;;;;10.95;8.05;;;;;;;;;;5091708;28;20024;-35
2021/08/11 08:45:43;;;;;;;11.85;7.13;;;;;;;;;;5091542;28;20032;-35
2021/08/11 08:48:09;;;;;;;8.30;6.90;;;;;;;;;;5088423;28;20027;-36
2021/08/11 08:50:35;;;;;;;9.07;7.40;;;;;;;;;;5091653;28;20441;-36
2021/08/11 08:53:03;;;;;;;9.68;7.28;;;;;;;;;;5073578;28;20387;-36
2021/08/11 08:55:30;;;;;;;8.18;7.35;;;;;;;;;;5091502;28;20157;-36
2021/08/11 08:57:56;;;;;;;7.93;6.80;;;;;;;;;;5073375;28;20035;-36
2021/08/11 09:00:23;;;;;;;6.07;5.57;;;;;;;;;;5091423;28;20028;-35
2021/08/11 09:02:49;;;;;;;7.18;6.47;;;;;;;;;;5071020;28;20489;-36
2021/08/11 09:05:15;;;;;;;7.10;6.40;;;;;;;;;;5091391;28;20051;-37
2021/08/11 09:07:49;;;;;;;9.30;6.22;;;;;;;;;;5091601;28;20020;-35
2021/08/11 09:10:26;;;;;;;7.07;5.70;;;;;;;;;;5091368;28;20452;-35
2021/08/11 09:13:06;;;;;;;9.18;5.72;;;;;;;;;;5091430;28;20020;-35
2021/08/11 09:15:37;;;;;;;5.85;5.35;;;;;;;;;;5091315;28;20024;-36
2021/08/11 09:18:16;;;;;;;5.82;5.32;;;;;;;;;;5091234;28;20048;-35
2021/08/11 09:20:47;;;;;;;5.07;4.63;;;;;;;;;;5091362;28;20031;-36
2021/08/11 09:23:14;;;;;;;5.75;5.25;;;;;;;;;;5091624;28;20423;-35
2021/08/11 09:25:57;;;;;;;6.43;5.10;;;;;;;;;;5091159;28;20024;-36
2021/08/11 09:28:23;;;;;;;5.22;4.80;;;;;;;;;;5091405;28;20024;-36
2021/08/11 09:30:49;;;;;;;5.55;5.05;;;;;;;;;;5091267;28;20020;-36
2021/08/11 09:33:15;;;;;;;5.10;4.60;;;;;;;;;;5091356;28;20031;-36
2021/08/11 09:35:42;;;;;;;5.40;4.90;;;;;;;;;;5091346;28;20379;-36
2021/08/11 09:38:13;;;;;;;5.55;5.07;;;;;;;;;;5091463;28;20090;-36
2021/08/11 09:40:40;;;;;;;5.82;5.22;;;;;;;;;;5093342;28;20024;-35
2021/08/11 09:43:08;;;;;;;6.97;4.82;;;;;;;;;;5094893;28;20039;-36
2021/08/11 09:45:44;;;;;;;6.35;4.57;;;;;;;;;;5094779;28;20020;-35
2021/08/11 09:48:10;;;;;;;5.72;4.43;;;;;;;;;;5094985;28;20390;-36
2021/08/11 09:50:37;;;;;;;5.15;4.70;;;;;;;;;;5094808;28;20023;-36
2021/08/11 09:53:04;;;;;;;5.05;4.65;;;;;;;;;;5094720;28;20024;-36
2021/08/11 09:55:30;;;;;;;5.63;4.95;;;;;;;;;;5094643;28;20106;-36
2021/08/11 09:57:56;;;;;;;5.03;4.60;;;;;;;;;;5094664;28;20036;-35
2021/08/11 10:00:22;;;;;;;8.05;4.40;;;;;;;;;;5094590;28;20020;-36
2021/08/11 10:03:02;;;;;;;4.55;3.92;;;;;;;;;;5076497;28;20051;-36
2021/08/11 10:05:35;;;;;;;6.22;4.72;;;;;;;;;;5094366;28;20035;-36
2021/08/11 10:08:02;;;;;;;6.30;5.05;;;;;;;;;;5094559;28;20035;-36
2021/08/11 10:10:28;;;;;;;4.88;4.47;;;;;;;;;;5094283;28;20070;-36
2021/08/11 10:12:54;;;;;;;6.93;5.22;;;;;;;;;;5094238;28;20030;-35
2021/08/11 10:15:20;;;;;;;5.32;4.80;;;;;;;;;;5094310;28;20097;-35
2021/08/11 10:17:50;;;;;;;5.07;4.68;;;;;;;;;;5094174;28;20052;-35
2021/08/11 10:20:18;;;;;;;5.25;4.50;;;;;;;;;;5076374;28;20031;-35
2021/08/11 10:22:45;;;;;;;7.05;5.20;;;;;;;;;;5093707;28;20025;-35
2021/08/11 10:25:11;;;;;;;4.50;4.20;;;;;;;;;;5093732;28;20119;-36
2021/08/11 10:27:38;;;;;;;6.18;4.38;;;;;;;;;;5092424;28;20047;-36
2021/08/11 10:30:04;;;;;;;5.65;5.18;;;;;;;;;;5093147;28;20026;-36
2021/08/11 10:32:32;;;;;;;5.25;4.85;;;;;;;;;;5094086;28;20028;-36
2021/08/11 10:34:58;;;;;;;6.15;4.57;;;;;;;;;;5093676;28;20092;-36
2021/08/11 10:37:24;;;;;;;4.72;4.35;;;;;;;;;;5092692;28;20016;-35
2021/08/11 10:39:52;;;;;;;4.25;3.95;;;;;;;;;;5075536;28;20394;-36
2021/08/11 10:42:18;;;;;;;5.05;4.65;;;;;;;;;;5092469;28;20032;-36
2021/08/11 10:44:45;;;;;;;5.88;4.60;;;;;;;;;;5091496;28;20043;-36
2021/08/11 10:47:11;;;;;;;6.00;5.00;;;;;;;;;;5091480;28;20024;-36
2021/08/11 10:49:51;;;;;;;5.18;4.68;;;;;;;;;;5091504;28;20031;-36
2021/08/11 10:52:17;;;;;;;4.90;4.50;;;;;;;;;;5090899;28;20089;-39
2021/08/11 10:55:03;;;;;;;5.07;4.40;;;;;;;;;;5091486;28;20024;-37
2021/08/11 10:57:38;;;;;;;7.57;4.78;;;;;;;;;;5092617;28;20028;-36
2021/08/11 11:00:22;;;;;;;4.60;4.20;;;;;;;;;;5093367;28;20086;-36
2021/08/11 11:02:49;;;;;;;;;;;;;;;;;;5093753;28;20027;-36
2021/08/11 11:05:15;;;;;;;6.65;4.90;;;;;;;;;;5093265;28;19908;-35
2021/08/11 11:07:41;;;;;;;5.65;5.15;;;;;;;;;;5093363;28;20024;-36
2021/08/11 11:10:22;;;;;;;4.55;4.15;;;;;;;;;;5093027;28;20016;-36
2021/08/11 11:12:48;;;;;;;6.18;4.45;;;;;;;;;;5093101;28;20028;-36
2021/08/11 11:15:14;;;;;;;4.57;4.25;;;;;;;;;;5093098;28;20024;-36
2021/08/11 11:18:03;;;;;;;5.78;4.35;;;;;;;;;;5074601;28;20044;-36
2021/08/11 11:20:29;;;;;;;4.82;4.43;;;;;;;;;;5092845;28;20021;-35
2021/08/11 11:22:56;;;;;;;4.40;4.03;;;;;;;;;;5093032;28;20024;-35
2021/08/11 11:25:41;;;;;;;4.65;4.20;;;;;;;;;;5092805;28;20463;-37
2021/08/11 11:28:07;;;;;;;4.72;4.30;;;;;;;;;;5092795;28;20074;-35
2021/08/11 11:30:35;;;;;;;4.57;4.18;;;;;;;;;;5092718;28;20032;-35
2021/08/11 11:33:30;;;;;;;4.80;3.83;;;;;;;;;;5092902;28;20024;-36
2021/08/11 11:36:15;;;;;;;4.88;4.35;;;;;;;;;;5092540;28;20032;-36
2021/08/11 11:39:02;;;;;;;5.47;3.83;;;;;;;;;;5092828;28;20035;-36
2021/08/11 11:41:28;;;;;;;4.28;3.50;;;;;;;;;;5092655;28;20048;-37
2021/08/11 11:43:56;;;;;;;4.60;4.20;;;;;;;;;;5092006;28;20031;-46
2021/08/11 11:46:41;;;;;;;5.40;4.10;;;;;;;;;;5092411;28;20383;-46
2021/08/11 11:49:17;;;;;;;4.22;3.90;;;;;;;;;;5092457;28;20021;-47
2021/08/11 11:51:44;;;;;;;4.30;3.90;;;;;;;;;;5092857;28;20024;-50
2021/08/11 11:54:10;;;;;;;5.40;4.13;;;;;;;;;;5092676;28;20803;-47
2021/08/11 11:56:37;;;;;;;4.75;4.15;;;;;;;;;;5074487;28;20487;-47
2021/08/11 11:59:07;;;;;;;4.38;3.75;;;;;;;;;;5091714;28;20031;-46
2021/08/11 12:01:37;;;;;;;3.78;3.40;;;;;;;;;;5061806;28;20613;-45
2021/08/11 12:04:03;;;;;;;3.85;3.55;;;;;;;;;;5081327;28;20615;-47
2021/08/11 12:06:36;;;;;;;4.03;3.70;;;;;;;;;;5079606;28;20020;-48
2021/08/11 12:09:03;;;;;;;3.60;3.30;;;;;;;;;;5080263;28;20060;-45
2021/08/11 12:11:29;;;;;;;5.25;3.67;;;;;;;;;;5081613;28;20475;-49
2021/08/11 12:13:55;;;;;;;5.50;3.88;;;;;;;;;;5080339;28;20021;-48
2021/08/11 12:16:21;;;;;;;5.80;3.47;;;;;;;;;;5079694;28;20359;-47
2021/08/11 12:18:49;;;;;;;4.05;3.63;;;;;;;;;;5081569;28;20028;-49
2021/08/11 12:21:17;;;;;;;6.50;3.70;;;;;;;;;;5080352;28;20025;-48
2021/08/11 12:23:43;;;;;;;4.05;3.60;;;;;;;;;;5079747;28;20024;-46
2021/08/11 12:26:16;;;;;;;3.55;3.25;;;;;;;;;;5079393;28;20024;-48
2021/08/11 12:28:50;;;;;;;3.50;3.20;;;;;;;;;;5079966;28;20031;-46
2021/08/11 12:31:22;;;;;;;5.28;3.20;;;;;;;;;;5080507;28;20029;-49
2021/08/11 12:33:49;;;;;;;3.22;2.90;;;;;;;;;;5063653;28;20027;-47
2021/08/11 12:36:22;;;;;;;3.92;3.53;;;;;;;;;;5079995;28;20024;-48
2021/08/11 12:39:02;;;;;;;3.70;3.40;;;;;;;;;;5079171;28;20028;-46
2021/08/11 12:41:30;;;;;;;4.57;2.83;;;;;;;;;;5079342;28;20012;-47
2021/08/11 12:43:57;;;;;;;3.45;3.22;;;;;;;;;;5080286;28;20643;-48
2021/08/11 12:46:38;;;;;;;3.65;3.35;;;;;;;;;;5078583;28;20565;-47
2021/08/11 12:49:15;;;;;;;3.30;3.00;;;;;;;;;;5078939;28;20021;-48
2021/08/11 12:51:41;;;;;;;3.38;3.08;;;;;;;;;;5079135;28;20026;-46
2021/08/11 12:54:08;;;;;;;4.43;2.88;;;;;;;;;;5078925;28;20024;-46
2021/08/11 12:56:34;;;;;;;4.65;3.20;;;;;;;;;;5080256;28;20062;-47
2021/08/11 12:59:03;;;;;;;3.20;2.60;;;;;;;;;;5080960;28;20033;-47
2021/08/11 13:01:33;;;;;;;6.10;2.80;;;;;;;;;;5079386;28;20024;-48
2021/08/11 13:04:00;;;;;;;3.30;2.80;;;;;;;;;;5081847;28;20047;-47
2021/08/11 13:06:38;;;;;;;3.15;2.85;;;;;;;;;;5081696;28;20028;-47
2021/08/11 13:09:05;;;;;;;3.83;3.20;;;;;;;;;;5079353;28;20032;-46
2021/08/11 13:11:48;;;;;;;3.80;2.95;;;;;;;;;;5080663;28;20016;-47
2021/08/11 13:14:14;;;;;;;4.72;3.50;;;;;;;;;;5080085;28;20464;-47
2021/08/11 13:16:59;;;;;;;4.72;2.60;;;;;;;;;;5082892;28;20040;-46
2021/08/11 13:19:25;;;;;;;4.30;3.15;;;;;;;;;;5085209;28;20383;-47
2021/08/11 13:21:51;;;;;;;3.00;2.75;;;;;;;;;;5083521;28;20021;-47
2021/08/11 13:24:17;;;;;;;5.03;3.55;;;;;;;;;;5092112;28;20020;-51
2021/08/11 13:26:43;;;;;;;3.95;2.78;;;;;;;;;;5095201;28;20081;-50
2021/08/11 13:29:09;;;;;;;3.13;2.83;;;;;;;;;;5095228;28;20109;-49
2021/08/11 13:31:35;;;;;;;4.70;2.55;;;;;;;;;;5095194;28;20020;-52
2021/08/11 13:34:01;;;;;;;2.60;2.40;;;;;;;;;;5095087;28;20039;-47
2021/08/11 13:36:29;;;;;;;4.28;3.13;;;;;;;;;;5095122;28;20024;-47
2021/08/11 13:38:55;;;;;;;5.18;3.17;;;;;;;;;;5094944;28;20478;-48
2021/08/11 13:41:21;;;;;;;3.20;2.90;;;;;;;;;;5095037;28;20024;-46
2021/08/11 13:43:47;;;;;;;2.60;2.40;;;;;;;;;;5094818;28;20062;-46
2021/08/11 13:46:13;;;;;;;2.72;2.53;;;;;;;;;;5094815;28;20020;-47
2021/08/11 13:48:39;;;;;;;2.90;2.60;;;;;;;;;;5094912;28;20024;-49
2021/08/11 13:51:05;;;;;;;4.28;2.50;;;;;;;;;;5095045;28;20013;-48
2021/08/11 13:53:31;;;;;;;2.90;2.70;;;;;;;;;;5094995;28;20016;-46
2021/08/11 13:55:57;;;;;;;2.75;2.55;;;;;;;;;;5094559;28;20490;-46
2021/08/11 13:58:23;;;;;;;4.05;2.90;;;;;;;;;;5094443;28;20039;-46
2021/08/11 14:00:49;;;;;;;3.28;2.90;;;;;;;;;;5094604;28;20024;-48
2021/08/11 14:03:15;;;;;;;2.92;2.53;;;;;;;;;;5094588;28;20024;-47
2021/08/11 14:05:43;;;;;;;4.40;2.80;;;;;;;;;;5094502;28;20035;-47
2021/08/11 14:08:09;;;;;;;2.83;2.50;;;;;;;;;;5094009;28;20028;-46
2021/08/11 14:10:35;;;;;;;4.28;2.67;;;;;;;;;;5094331;28;20020;-47
2021/08/11 14:13:01;;;;;;;3.35;2.50;;;;;;;;;;5094257;28;20043;-46
2021/08/11 14:15:27;;;;;;;4.90;2.60;;;;;;;;;;5094301;28;20479;-48
2021/08/11 14:17:53;;;;;;;3.88;2.55;;;;;;;;;;5094180;28;20048;-47
2021/08/11 14:20:19;;;;;;;2.60;2.40;;;;;;;;;;5094205;28;20118;-50
2021/08/11 14:22:46;;;;;;;2.80;2.60;;;;;;;;;;5094185;28;20020;-50
2021/08/11 14:25:13;;;;;;;4.15;2.75;;;;;;;;;;5094321;28;20090;-49
2021/08/11 14:27:40;;;;;;;3.47;2.50;;;;;;;;;;5092846;28;20024;-51
2021/08/11 14:30:06;;;;;;;3.70;2.42;;;;;;;;;;5093920;28;20024;-49
2021/08/11 14:32:32;;;;;;;2.67;2.30;;;;;;;;;;5093895;28;20449;-47
2021/08/11 14:34:58;;;;;;;5.15;2.45;;;;;;;;;;5093897;28;20429;-48
2021/08/11 14:37:24;;;;;;;2.50;2.30;;;;;;;;;;5093982;28;20032;-46
2021/08/11 14:39:50;;;;;;;6.22;2.95;;;;;;;;;;5093743;28;20085;-51
2021/08/11 14:42:16;;;;;;;2.70;2.20;;;;;;;;;;5093905;28;20031;-48
2021/08/11 14:44:42;;;;;;;6.85;2.72;;;;;;;;;;5093921;28;20024;-47
2021/08/11 14:47:09;;;;;;;2.70;2.45;;;;;;;;;;5093737;28;20466;-48